sensor_id;sensor_type;location;lat;lon;timestamp;P1;durP1;ratioP1;P2;durP2;ratioP2
41923;SDS011;27613;48.116;11.656;2022-08-30T00:00:39;8.90;;;6.90;;
41923;SDS011;27613;48.116;11.656;2022-08-30T00:03:23;8.52;;;6.75;;
41923;SDS011;27613;48.116;11.656;2022-08-30T00:05:49;8.25;;;6.75;;
41923;SDS011;27613;48.116;11.656;2022-08-30T00:08:15;9.40;;;6.45;;
41923;SDS011;27613;48.116;11.656;2022-08-30T00:10:41;11.15;;;7.03;;
41923;SDS011;27613;48.116;11.656;2022-08-30T00:13:07;10.63;;;7.07;;
41923;SDS011;27613;48.116;11.656;2022-08-30T00:15:36;9.43;;;6.97;;
41923;SDS011;27613;48.116;11.656;2022-08-30T00:18:03;7.03;;;6.32;;
41923;SDS011;27613;48.116;11.656;2022-08-30T00:20:30;8.30;;;7.32;;
41923;SDS011;27613;48.116;11.656;2022-08-30T00:22:57;9.13;;;7.05;;
41923;SDS011;27613;48.116;11.656;2022-08-30T00:25:23;8.02;;;6.40;;
41923;SDS011;27613;48.116;11.656;2022-08-30T00:27:49;7.90;;;6.63;;
41923;SDS011;27613;48.116;11.656;2022-08-30T00:30:15;7.30;;;6.45;;
41923;SDS011;27613;48.116;11.656;2022-08-30T00:32:42;7.72;;;6.90;;
41923;SDS011;27613;48.116;11.656;2022-08-30T00:35:08;8.25;;;6.40;;
41923;SDS011;27613;48.116;11.656;2022-08-30T00:37:36;8.75;;;6.57;;
41923;SDS011;27613;48.116;11.656;2022-08-30T00:40:03;7.30;;;5.90;;
41923;SDS011;27613;48.116;11.656;2022-08-30T00:42:30;7.32;;;6.32;;
41923;SDS011;27613;48.116;11.656;2022-08-30T00:44:57;7.38;;;6.13;;
41923;SDS011;27613;48.116;11.656;2022-08-30T00:47:23;8.77;;;6.82;;
41923;SDS011;27613;48.116;11.656;2022-08-30T00:49:51;6.90;;;6.10;;
41923;SDS011;27613;48.116;11.656;2022-08-30T00:52:20;11.10;;;7.35;;
41923;SDS011;27613;48.116;11.656;2022-08-30T00:54:47;8.40;;;6.95;;
41923;SDS011;27613;48.116;11.656;2022-08-30T00:57:15;8.38;;;6.88;;
41923;SDS011;27613;48.116;11.656;2022-08-30T00:59:45;7.65;;;6.88;;
41923;SDS011;27613;48.116;11.656;2022-08-30T01:02:13;11.13;;;6.97;;
41923;SDS011;27613;48.116;11.656;2022-08-30T01:04:42;8.85;;;6.53;;
41923;SDS011;27613;48.116;11.656;2022-08-30T01:07:09;10.18;;;6.70;;
41923;SDS011;27613;48.116;11.656;2022-08-30T01:09:35;7.10;;;6.35;;
41923;SDS011;27613;48.116;11.656;2022-08-30T01:12:02;7.30;;;6.38;;
41923;SDS011;27613;48.116;11.656;2022-08-30T01:14:28;7.50;;;6.50;;
41923;SDS011;27613;48.116;11.656;2022-08-30T01:16:57;7.57;;;6.78;;
41923;SDS011;27613;48.116;11.656;2022-08-30T01:22:27;6.82;;;6.13;;
41923;SDS011;27613;48.116;11.656;2022-08-30T01:25:09;7.93;;;6.68;;
41923;SDS011;27613;48.116;11.656;2022-08-30T01:27:39;13.10;;;6.65;;
41923;SDS011;27613;48.116;11.656;2022-08-30T01:30:09;6.60;;;5.85;;
41923;SDS011;27613;48.116;11.656;2022-08-30T01:32:40;8.27;;;6.60;;
41923;SDS011;27613;48.116;11.656;2022-08-30T01:35:09;10.18;;;7.18;;
41923;SDS011;27613;48.116;11.656;2022-08-30T01:37:36;9.85;;;6.68;;
41923;SDS011;27613;48.116;11.656;2022-08-30T01:40:04;9.10;;;6.50;;
41923;SDS011;27613;48.116;11.656;2022-08-30T01:42:31;7.68;;;6.20;;
41923;SDS011;27613;48.116;11.656;2022-08-30T01:44:56;6.93;;;5.88;;
41923;SDS011;27613;48.116;11.656;2022-08-30T01:47:22;7.38;;;6.57;;
41923;SDS011;27613;48.116;11.656;2022-08-30T01:49:48;7.57;;;6.38;;
41923;SDS011;27613;48.116;11.656;2022-08-30T01:52:15;9.15;;;6.88;;
41923;SDS011;27613;48.116;11.656;2022-08-30T01:54:42;7.63;;;6.80;;
41923;SDS011;27613;48.116;11.656;2022-08-30T01:57:09;10.30;;;7.20;;
41923;SDS011;27613;48.116;11.656;2022-08-30T01:59:37;8.50;;;7.07;;
41923;SDS011;27613;48.116;11.656;2022-08-30T02:02:08;8.30;;;6.45;;
41923;SDS011;27613;48.116;11.656;2022-08-30T02:04:34;7.10;;;6.22;;
41923;SDS011;27613;48.116;11.656;2022-08-30T02:07:01;7.70;;;6.93;;
41923;SDS011;27613;48.116;11.656;2022-08-30T02:09:28;7.93;;;6.65;;
41923;SDS011;27613;48.116;11.656;2022-08-30T02:11:54;8.38;;;6.50;;
41923;SDS011;27613;48.116;11.656;2022-08-30T02:14:20;7.35;;;6.60;;
41923;SDS011;27613;48.116;11.656;2022-08-30T02:16:45;8.65;;;6.32;;
41923;SDS011;27613;48.116;11.656;2022-08-30T02:19:12;10.43;;;6.72;;
41923;SDS011;27613;48.116;11.656;2022-08-30T02:21:38;8.18;;;7.15;;
41923;SDS011;27613;48.116;11.656;2022-08-30T02:24:03;11.32;;;6.97;;
41923;SDS011;27613;48.116;11.656;2022-08-30T02:26:29;7.35;;;6.25;;
41923;SDS011;27613;48.116;11.656;2022-08-30T02:28:55;7.57;;;6.78;;
41923;SDS011;27613;48.116;11.656;2022-08-30T02:31:21;8.65;;;6.85;;
41923;SDS011;27613;48.116;11.656;2022-08-30T02:33:50;8.55;;;5.93;;
41923;SDS011;27613;48.116;11.656;2022-08-30T02:36:17;7.45;;;6.53;;
41923;SDS011;27613;48.116;11.656;2022-08-30T02:38:44;10.85;;;6.45;;
41923;SDS011;27613;48.116;11.656;2022-08-30T02:41:10;8.25;;;6.63;;
41923;SDS011;27613;48.116;11.656;2022-08-30T02:43:36;10.27;;;7.10;;
41923;SDS011;27613;48.116;11.656;2022-08-30T02:46:02;9.18;;;6.80;;
41923;SDS011;27613;48.116;11.656;2022-08-30T02:48:28;9.23;;;6.43;;
41923;SDS011;27613;48.116;11.656;2022-08-30T02:50:54;11.63;;;6.75;;
41923;SDS011;27613;48.116;11.656;2022-08-30T02:53:20;7.85;;;6.90;;
41923;SDS011;27613;48.116;11.656;2022-08-30T02:55:46;7.90;;;6.28;;
41923;SDS011;27613;48.116;11.656;2022-08-30T02:58:13;8.88;;;6.82;;
41923;SDS011;27613;48.116;11.656;2022-08-30T03:00:39;7.60;;;6.20;;
41923;SDS011;27613;48.116;11.656;2022-08-30T03:03:05;14.63;;;7.45;;
41923;SDS011;27613;48.116;11.656;2022-08-30T03:05:31;9.23;;;6.70;;
41923;SDS011;27613;48.116;11.656;2022-08-30T03:07:57;8.85;;;7.53;;
41923;SDS011;27613;48.116;11.656;2022-08-30T03:10:24;9.35;;;6.90;;
41923;SDS011;27613;48.116;11.656;2022-08-30T03:12:54;13.98;;;7.15;;
41923;SDS011;27613;48.116;11.656;2022-08-30T03:15:20;8.60;;;6.93;;
41923;SDS011;27613;48.116;11.656;2022-08-30T03:17:49;9.15;;;6.40;;
41923;SDS011;27613;48.116;11.656;2022-08-30T03:20:16;8.63;;;7.30;;
41923;SDS011;27613;48.116;11.656;2022-08-30T03:22:43;8.55;;;6.95;;
41923;SDS011;27613;48.116;11.656;2022-08-30T03:25:08;6.72;;;6.13;;
41923;SDS011;27613;48.116;11.656;2022-08-30T03:27:34;7.43;;;6.53;;
41923;SDS011;27613;48.116;11.656;2022-08-30T03:30:00;8.75;;;6.70;;
41923;SDS011;27613;48.116;11.656;2022-08-30T03:32:26;8.55;;;6.15;;
41923;SDS011;27613;48.116;11.656;2022-08-30T03:34:51;6.93;;;6.22;;
41923;SDS011;27613;48.116;11.656;2022-08-30T03:37:17;7.75;;;6.43;;
41923;SDS011;27613;48.116;11.656;2022-08-30T03:39:44;7.45;;;6.22;;
41923;SDS011;27613;48.116;11.656;2022-08-30T03:42:10;7.70;;;6.13;;
41923;SDS011;27613;48.116;11.656;2022-08-30T03:44:36;8.55;;;6.28;;
41923;SDS011;27613;48.116;11.656;2022-08-30T03:47:02;10.13;;;6.25;;
41923;SDS011;27613;48.116;11.656;2022-08-30T03:49:29;8.32;;;6.32;;
41923;SDS011;27613;48.116;11.656;2022-08-30T03:51:55;7.47;;;5.85;;
41923;SDS011;27613;48.116;11.656;2022-08-30T03:54:21;8.27;;;6.75;;
41923;SDS011;27613;48.116;11.656;2022-08-30T03:56:47;7.45;;;6.50;;
41923;SDS011;27613;48.116;11.656;2022-08-30T03:59:12;8.85;;;6.45;;
41923;SDS011;27613;48.116;11.656;2022-08-30T04:01:38;8.60;;;6.68;;
41923;SDS011;27613;48.116;11.656;2022-08-30T04:04:06;9.45;;;6.70;;
41923;SDS011;27613;48.116;11.656;2022-08-30T04:06:32;12.90;;;6.10;;
41923;SDS011;27613;48.116;11.656;2022-08-30T04:08:58;10.95;;;6.07;;
41923;SDS011;27613;48.116;11.656;2022-08-30T04:11:24;7.13;;;6.25;;
41923;SDS011;27613;48.116;11.656;2022-08-30T04:13:50;7.03;;;6.25;;
41923;SDS011;27613;48.116;11.656;2022-08-30T04:16:20;7.78;;;6.03;;
41923;SDS011;27613;48.116;11.656;2022-08-30T04:18:46;7.63;;;6.78;;
41923;SDS011;27613;48.116;11.656;2022-08-30T04:21:12;8.82;;;6.45;;
41923;SDS011;27613;48.116;11.656;2022-08-30T04:23:38;7.43;;;6.15;;
41923;SDS011;27613;48.116;11.656;2022-08-30T04:26:04;6.90;;;5.85;;
41923;SDS011;27613;48.116;11.656;2022-08-30T04:28:29;7.60;;;6.30;;
41923;SDS011;27613;48.116;11.656;2022-08-30T04:30:55;7.40;;;6.43;;
41923;SDS011;27613;48.116;11.656;2022-08-30T04:33:21;15.10;;;6.63;;
41923;SDS011;27613;48.116;11.656;2022-08-30T04:35:47;7.28;;;6.57;;
41923;SDS011;27613;48.116;11.656;2022-08-30T04:38:14;6.10;;;5.50;;
41923;SDS011;27613;48.116;11.656;2022-08-30T04:40:41;7.28;;;5.88;;
41923;SDS011;27613;48.116;11.656;2022-08-30T04:43:08;7.40;;;6.13;;
41923;SDS011;27613;48.116;11.656;2022-08-30T04:45:33;6.18;;;5.57;;
41923;SDS011;27613;48.116;11.656;2022-08-30T04:48:01;11.27;;;6.50;;
41923;SDS011;27613;48.116;11.656;2022-08-30T04:50:27;7.80;;;6.20;;
41923;SDS011;27613;48.116;11.656;2022-08-30T04:52:52;8.35;;;6.15;;
41923;SDS011;27613;48.116;11.656;2022-08-30T04:55:18;9.38;;;6.30;;
41923;SDS011;27613;48.116;11.656;2022-08-30T04:57:44;7.85;;;6.45;;
41923;SDS011;27613;48.116;11.656;2022-08-30T05:00:11;8.60;;;6.18;;
41923;SDS011;27613;48.116;11.656;2022-08-30T05:02:38;8.45;;;6.45;;
41923;SDS011;27613;48.116;11.656;2022-08-30T05:05:05;8.40;;;6.15;;
41923;SDS011;27613;48.116;11.656;2022-08-30T05:07:50;12.50;;;6.40;;
41923;SDS011;27613;48.116;11.656;2022-08-30T05:10:16;7.60;;;6.80;;
41923;SDS011;27613;48.116;11.656;2022-08-30T05:12:41;27.45;;;6.88;;
41923;SDS011;27613;48.116;11.656;2022-08-30T05:15:08;7.72;;;6.53;;
41923;SDS011;27613;48.116;11.656;2022-08-30T05:17:35;8.00;;;7.00;;
41923;SDS011;27613;48.116;11.656;2022-08-30T05:20:02;10.48;;;6.93;;
41923;SDS011;27613;48.116;11.656;2022-08-30T05:22:29;8.35;;;6.80;;
41923;SDS011;27613;48.116;11.656;2022-08-30T05:24:54;8.15;;;6.30;;
41923;SDS011;27613;48.116;11.656;2022-08-30T05:27:20;10.40;;;6.85;;
41923;SDS011;27613;48.116;11.656;2022-08-30T05:29:46;7.68;;;6.22;;
41923;SDS011;27613;48.116;11.656;2022-08-30T05:32:11;8.52;;;6.38;;
41923;SDS011;27613;48.116;11.656;2022-08-30T05:34:37;12.98;;;6.75;;
41923;SDS011;27613;48.116;11.656;2022-08-30T05:37:02;8.13;;;6.38;;
41923;SDS011;27613;48.116;11.656;2022-08-30T05:39:28;11.40;;;6.80;;
41923;SDS011;27613;48.116;11.656;2022-08-30T05:41:55;11.05;;;7.25;;
41923;SDS011;27613;48.116;11.656;2022-08-30T05:44:21;12.15;;;7.80;;
41923;SDS011;27613;48.116;11.656;2022-08-30T05:46:47;8.65;;;6.80;;
41923;SDS011;27613;48.116;11.656;2022-08-30T05:49:13;10.82;;;7.78;;
41923;SDS011;27613;48.116;11.656;2022-08-30T05:51:39;10.23;;;7.15;;
41923;SDS011;27613;48.116;11.656;2022-08-30T05:54:05;11.35;;;7.18;;
41923;SDS011;27613;48.116;11.656;2022-08-30T05:56:32;8.45;;;7.13;;
41923;SDS011;27613;48.116;11.656;2022-08-30T05:59:00;9.70;;;6.47;;
41923;SDS011;27613;48.116;11.656;2022-08-30T06:01:33;10.13;;;7.53;;
41923;SDS011;27613;48.116;11.656;2022-08-30T06:04:04;11.00;;;6.13;;
41923;SDS011;27613;48.116;11.656;2022-08-30T06:06:33;10.77;;;6.40;;
41923;SDS011;27613;48.116;11.656;2022-08-30T06:09:00;10.38;;;6.20;;
41923;SDS011;27613;48.116;11.656;2022-08-30T06:11:26;8.05;;;6.05;;
41923;SDS011;27613;48.116;11.656;2022-08-30T06:13:52;7.38;;;5.82;;
41923;SDS011;27613;48.116;11.656;2022-08-30T06:16:19;13.65;;;6.45;;
41923;SDS011;27613;48.116;11.656;2022-08-30T06:18:50;16.27;;;5.75;;
41923;SDS011;27613;48.116;11.656;2022-08-30T06:21:21;8.00;;;6.47;;
41923;SDS011;27613;48.116;11.656;2022-08-30T06:23:52;11.57;;;5.97;;
41923;SDS011;27613;48.116;11.656;2022-08-30T06:26:19;15.70;;;6.20;;
41923;SDS011;27613;48.116;11.656;2022-08-30T06:28:45;10.40;;;5.97;;
41923;SDS011;27613;48.116;11.656;2022-08-30T06:31:12;8.23;;;5.82;;
41923;SDS011;27613;48.116;11.656;2022-08-30T06:33:39;8.80;;;5.68;;
41923;SDS011;27613;48.116;11.656;2022-08-30T06:36:06;9.65;;;6.32;;
41923;SDS011;27613;48.116;11.656;2022-08-30T06:38:35;8.45;;;5.60;;
41923;SDS011;27613;48.116;11.656;2022-08-30T06:41:08;33.08;;;5.65;;
41923;SDS011;27613;48.116;11.656;2022-08-30T06:43:36;9.15;;;5.95;;
41923;SDS011;27613;48.116;11.656;2022-08-30T06:46:03;7.43;;;5.20;;
41923;SDS011;27613;48.116;11.656;2022-08-30T06:48:29;7.03;;;5.55;;
41923;SDS011;27613;48.116;11.656;2022-08-30T06:50:54;11.85;;;5.30;;
41923;SDS011;27613;48.116;11.656;2022-08-30T06:53:20;15.10;;;6.25;;
41923;SDS011;27613;48.116;11.656;2022-08-30T06:56:00;7.07;;;5.35;;
41923;SDS011;27613;48.116;11.656;2022-08-30T06:58:34;13.43;;;5.40;;
41923;SDS011;27613;48.116;11.656;2022-08-30T07:01:00;9.52;;;4.93;;
41923;SDS011;27613;48.116;11.656;2022-08-30T07:03:26;13.57;;;5.20;;
41923;SDS011;27613;48.116;11.656;2022-08-30T07:05:53;9.15;;;5.93;;
41923;SDS011;27613;48.116;11.656;2022-08-30T07:08:19;8.23;;;5.45;;
41923;SDS011;27613;48.116;11.656;2022-08-30T07:10:46;7.20;;;5.15;;
41923;SDS011;27613;48.116;11.656;2022-08-30T07:13:12;11.13;;;5.43;;
41923;SDS011;27613;48.116;11.656;2022-08-30T07:15:41;8.35;;;5.60;;
41923;SDS011;27613;48.116;11.656;2022-08-30T07:18:09;8.43;;;5.32;;
41923;SDS011;27613;48.116;11.656;2022-08-30T07:20:54;5.90;;;4.68;;
41923;SDS011;27613;48.116;11.656;2022-08-30T07:23:20;7.93;;;6.20;;
41923;SDS011;27613;48.116;11.656;2022-08-30T07:25:46;6.10;;;5.15;;
41923;SDS011;27613;48.116;11.656;2022-08-30T07:28:12;13.25;;;5.05;;
41923;SDS011;27613;48.116;11.656;2022-08-30T07:30:37;5.55;;;4.70;;
41923;SDS011;27613;48.116;11.656;2022-08-30T07:33:04;14.55;;;5.20;;
41923;SDS011;27613;48.116;11.656;2022-08-30T07:35:30;7.13;;;4.82;;
41923;SDS011;27613;48.116;11.656;2022-08-30T07:37:56;6.07;;;5.38;;
41923;SDS011;27613;48.116;11.656;2022-08-30T07:40:23;6.97;;;5.43;;
41923;SDS011;27613;48.116;11.656;2022-08-30T07:42:49;8.85;;;5.35;;
41923;SDS011;27613;48.116;11.656;2022-08-30T07:45:15;7.07;;;5.38;;
41923;SDS011;27613;48.116;11.656;2022-08-30T07:47:40;6.88;;;4.95;;
41923;SDS011;27613;48.116;11.656;2022-08-30T07:50:07;6.22;;;5.20;;
41923;SDS011;27613;48.116;11.656;2022-08-30T07:52:33;5.68;;;5.07;;
41923;SDS011;27613;48.116;11.656;2022-08-30T07:54:59;6.82;;;5.13;;
41923;SDS011;27613;48.116;11.656;2022-08-30T07:57:25;7.95;;;4.55;;
41923;SDS011;27613;48.116;11.656;2022-08-30T07:59:51;7.35;;;4.60;;
41923;SDS011;27613;48.116;11.656;2022-08-30T08:02:17;7.45;;;4.60;;
41923;SDS011;27613;48.116;11.656;2022-08-30T08:04:43;7.93;;;5.10;;
41923;SDS011;27613;48.116;11.656;2022-08-30T08:07:09;7.25;;;5.22;;
41923;SDS011;27613;48.116;11.656;2022-08-30T08:09:36;7.82;;;5.10;;
41923;SDS011;27613;48.116;11.656;2022-08-30T08:12:03;7.32;;;4.18;;
41923;SDS011;27613;48.116;11.656;2022-08-30T08:14:30;5.82;;;4.47;;
41923;SDS011;27613;48.116;11.656;2022-08-30T08:16:56;6.25;;;5.13;;
41923;SDS011;27613;48.116;11.656;2022-08-30T08:19:22;6.00;;;3.80;;
41923;SDS011;27613;48.116;11.656;2022-08-30T08:21:48;6.32;;;4.72;;
41923;SDS011;27613;48.116;11.656;2022-08-30T08:24:14;5.82;;;4.10;;
41923;SDS011;27613;48.116;11.656;2022-08-30T08:26:40;5.07;;;3.90;;
41923;SDS011;27613;48.116;11.656;2022-08-30T08:29:07;5.65;;;4.10;;
41923;SDS011;27613;48.116;11.656;2022-08-30T08:31:34;7.15;;;4.07;;
41923;SDS011;27613;48.116;11.656;2022-08-30T08:34:00;6.78;;;4.10;;
41923;SDS011;27613;48.116;11.656;2022-08-30T08:36:29;5.55;;;3.70;;
41923;SDS011;27613;48.116;11.656;2022-08-30T08:38:55;8.07;;;4.70;;
41923;SDS011;27613;48.116;11.656;2022-08-30T08:41:25;3.90;;;3.50;;
41923;SDS011;27613;48.116;11.656;2022-08-30T08:44:24;5.88;;;4.20;;
41923;SDS011;27613;48.116;11.656;2022-08-30T08:47:05;9.60;;;3.90;;
41923;SDS011;27613;48.116;11.656;2022-08-30T08:49:43;6.63;;;3.45;;
41923;SDS011;27613;48.116;11.656;2022-08-30T08:52:12;4.85;;;3.20;;
41923;SDS011;27613;48.116;11.656;2022-08-30T08:55:11;6.43;;;3.40;;
41923;SDS011;27613;48.116;11.656;2022-08-30T08:57:39;6.50;;;3.08;;
41923;SDS011;27613;48.116;11.656;2022-08-30T09:00:06;4.55;;;2.50;;
41923;SDS011;27613;48.116;11.656;2022-08-30T09:02:38;4.97;;;2.50;;
41923;SDS011;27613;48.116;11.656;2022-08-30T09:05:13;5.60;;;2.63;;
41923;SDS011;27613;48.116;11.656;2022-08-30T09:07:46;4.00;;;2.85;;
41923;SDS011;27613;48.116;11.656;2022-08-30T09:10:15;5.30;;;2.35;;
41923;SDS011;27613;48.116;11.656;2022-08-30T09:12:41;3.20;;;2.70;;
41923;SDS011;27613;48.116;11.656;2022-08-30T09:18:01;3.15;;;2.10;;
41923;SDS011;27613;48.116;11.656;2022-08-30T09:26:03;3.17;;;2.20;;
41923;SDS011;27613;48.116;11.656;2022-08-30T09:28:34;3.17;;;2.15;;
41923;SDS011;27613;48.116;11.656;2022-08-30T09:31:19;3.38;;;2.03;;
41923;SDS011;27613;48.116;11.656;2022-08-30T09:34:05;4.45;;;2.42;;
41923;SDS011;27613;48.116;11.656;2022-08-30T09:36:33;2.80;;;2.10;;
41923;SDS011;27613;48.116;11.656;2022-08-30T09:39:30;4.10;;;2.25;;
41923;SDS011;27613;48.116;11.656;2022-08-30T09:42:12;3.72;;;2.17;;
41923;SDS011;27613;48.116;11.656;2022-08-30T09:44:43;2.90;;;2.03;;
41923;SDS011;27613;48.116;11.656;2022-08-30T09:47:17;3.58;;;2.35;;
41923;SDS011;27613;48.116;11.656;2022-08-30T09:49:45;2.47;;;2.00;;
41923;SDS011;27613;48.116;11.656;2022-08-30T10:01:09;2.92;;;2.00;;
41923;SDS011;27613;48.116;11.656;2022-08-30T10:03:54;2.28;;;1.70;;
41923;SDS011;27613;48.116;11.656;2022-08-30T10:11:55;3.67;;;1.92;;
41923;SDS011;27613;48.116;11.656;2022-08-30T10:14:35;2.70;;;1.88;;
41923;SDS011;27613;48.116;11.656;2022-08-30T10:17:16;3.00;;;2.08;;
41923;SDS011;27613;48.116;11.656;2022-08-30T10:20:06;2.38;;;1.67;;
41923;SDS011;27613;48.116;11.656;2022-08-30T10:25:44;2.47;;;2.00;;
41923;SDS011;27613;48.116;11.656;2022-08-30T10:28:34;2.92;;;2.10;;
41923;SDS011;27613;48.116;11.656;2022-08-30T10:31:07;3.75;;;2.10;;
41923;SDS011;27613;48.116;11.656;2022-08-30T10:33:44;2.20;;;1.75;;
41923;SDS011;27613;48.116;11.656;2022-08-30T10:36:14;2.90;;;2.00;;
41923;SDS011;27613;48.116;11.656;2022-08-30T10:38:51;3.50;;;2.10;;
41923;SDS011;27613;48.116;11.656;2022-08-30T10:41:21;3.55;;;2.00;;
41923;SDS011;27613;48.116;11.656;2022-08-30T10:44:38;3.10;;;2.13;;
41923;SDS011;27613;48.116;11.656;2022-08-30T10:49:20;2.90;;;1.92;;
41923;SDS011;27613;48.116;11.656;2022-08-30T10:54:22;2.97;;;2.22;;
41923;SDS011;27613;48.116;11.656;2022-08-30T10:56:58;2.40;;;1.85;;
41923;SDS011;27613;48.116;11.656;2022-08-30T10:59:24;2.15;;;1.65;;
41923;SDS011;27613;48.116;11.656;2022-08-30T11:10:00;2.42;;;1.95;;
41923;SDS011;27613;48.116;11.656;2022-08-30T11:15:35;2.75;;;2.08;;
41923;SDS011;27613;48.116;11.656;2022-08-30T11:18:17;2.53;;;1.90;;
41923;SDS011;27613;48.116;11.656;2022-08-30T11:31:04;2.60;;;1.75;;
41923;SDS011;27613;48.116;11.656;2022-08-30T11:36:09;3.35;;;2.00;;
41923;SDS011;27613;48.116;11.656;2022-08-30T11:41:09;4.97;;;1.55;;
41923;SDS011;27613;48.116;11.656;2022-08-30T11:48:53;2.10;;;1.80;;
41923;SDS011;27613;48.116;11.656;2022-08-30T11:51:32;2.53;;;1.77;;
41923;SDS011;27613;48.116;11.656;2022-08-30T11:54:14;3.75;;;2.17;;
41923;SDS011;27613;48.116;11.656;2022-08-30T11:56:48;2.55;;;1.95;;
41923;SDS011;27613;48.116;11.656;2022-08-30T12:08:05;3.45;;;2.10;;
41923;SDS011;27613;48.116;11.656;2022-08-30T12:13:01;2.70;;;1.90;;
41923;SDS011;27613;48.116;11.656;2022-08-30T12:15:50;2.60;;;2.00;;
41923;SDS011;27613;48.116;11.656;2022-08-30T12:18:19;2.53;;;1.75;;
41923;SDS011;27613;48.116;11.656;2022-08-30T12:20:53;2.30;;;1.70;;
41923;SDS011;27613;48.116;11.656;2022-08-30T12:23:26;3.38;;;1.90;;
41923;SDS011;27613;48.116;11.656;2022-08-30T12:28:50;3.05;;;2.10;;
41923;SDS011;27613;48.116;11.656;2022-08-30T12:31:21;4.53;;;1.65;;
41923;SDS011;27613;48.116;11.656;2022-08-30T12:33:52;2.38;;;1.90;;
41923;SDS011;27613;48.116;11.656;2022-08-30T12:36:34;3.30;;;1.95;;
41923;SDS011;27613;48.116;11.656;2022-08-30T12:39:06;5.68;;;2.20;;
41923;SDS011;27613;48.116;11.656;2022-08-30T12:41:31;2.42;;;2.05;;
41923;SDS011;27613;48.116;11.656;2022-08-30T12:43:57;2.75;;;1.90;;
41923;SDS011;27613;48.116;11.656;2022-08-30T12:46:23;2.83;;;2.00;;
41923;SDS011;27613;48.116;11.656;2022-08-30T12:48:49;2.53;;;1.95;;
41923;SDS011;27613;48.116;11.656;2022-08-30T12:51:29;2.20;;;1.80;;
41923;SDS011;27613;48.116;11.656;2022-08-30T12:54:02;5.32;;;2.17;;
41923;SDS011;27613;48.116;11.656;2022-08-30T12:59:43;3.22;;;2.20;;
41923;SDS011;27613;48.116;11.656;2022-08-30T13:02:20;2.85;;;2.15;;
41923;SDS011;27613;48.116;11.656;2022-08-30T13:04:48;4.97;;;2.08;;
41923;SDS011;27613;48.116;11.656;2022-08-30T13:07:30;2.78;;;1.92;;
41923;SDS011;27613;48.116;11.656;2022-08-30T13:10:06;3.15;;;1.80;;
41923;SDS011;27613;48.116;11.656;2022-08-30T13:12:38;2.83;;;1.80;;
41923;SDS011;27613;48.116;11.656;2022-08-30T13:15:11;2.70;;;1.90;;
41923;SDS011;27613;48.116;11.656;2022-08-30T13:17:41;2.15;;;1.85;;
41923;SDS011;27613;48.116;11.656;2022-08-30T13:22:37;3.85;;;2.08;;
41923;SDS011;27613;48.116;11.656;2022-08-30T13:25:04;3.47;;;2.00;;
41923;SDS011;27613;48.116;11.656;2022-08-30T13:27:32;3.67;;;2.00;;
41923;SDS011;27613;48.116;11.656;2022-08-30T13:30:05;3.13;;;1.70;;
41923;SDS011;27613;48.116;11.656;2022-08-30T13:32:33;2.35;;;1.80;;
41923;SDS011;27613;48.116;11.656;2022-08-30T13:35:02;2.22;;;1.80;;
41923;SDS011;27613;48.116;11.656;2022-08-30T13:37:28;2.10;;;1.75;;
41923;SDS011;27613;48.116;11.656;2022-08-30T13:39:55;2.60;;;1.90;;
41923;SDS011;27613;48.116;11.656;2022-08-30T13:42:21;2.55;;;1.88;;
41923;SDS011;27613;48.116;11.656;2022-08-30T13:44:46;3.60;;;1.83;;
41923;SDS011;27613;48.116;11.656;2022-08-30T13:47:12;2.92;;;2.17;;
41923;SDS011;27613;48.116;11.656;2022-08-30T13:49:38;3.42;;;2.17;;
41923;SDS011;27613;48.116;11.656;2022-08-30T13:52:06;3.08;;;2.08;;
41923;SDS011;27613;48.116;11.656;2022-08-30T13:54:32;3.70;;;2.05;;
41923;SDS011;27613;48.116;11.656;2022-08-30T13:56:58;4.78;;;2.30;;
41923;SDS011;27613;48.116;11.656;2022-08-30T13:59:24;4.53;;;2.15;;
41923;SDS011;27613;48.116;11.656;2022-08-30T14:01:51;3.55;;;2.20;;
41923;SDS011;27613;48.116;11.656;2022-08-30T14:04:18;3.28;;;2.10;;
41923;SDS011;27613;48.116;11.656;2022-08-30T14:06:44;4.13;;;2.15;;
41923;SDS011;27613;48.116;11.656;2022-08-30T14:09:10;2.53;;;1.88;;
41923;SDS011;27613;48.116;11.656;2022-08-30T14:11:36;4.03;;;2.33;;
41923;SDS011;27613;48.116;11.656;2022-08-30T14:14:02;2.67;;;2.10;;
41923;SDS011;27613;48.116;11.656;2022-08-30T14:16:29;4.60;;;2.22;;
41923;SDS011;27613;48.116;11.656;2022-08-30T14:18:55;2.83;;;2.00;;
41923;SDS011;27613;48.116;11.656;2022-08-30T14:21:22;3.40;;;2.17;;
41923;SDS011;27613;48.116;11.656;2022-08-30T14:23:48;3.03;;;1.90;;
41923;SDS011;27613;48.116;11.656;2022-08-30T14:26:17;2.70;;;2.00;;
41923;SDS011;27613;48.116;11.656;2022-08-30T14:28:46;4.10;;;2.08;;
41923;SDS011;27613;48.116;11.656;2022-08-30T14:31:13;2.67;;;1.88;;
41923;SDS011;27613;48.116;11.656;2022-08-30T14:33:40;3.97;;;2.13;;
41923;SDS011;27613;48.116;11.656;2022-08-30T14:36:06;3.05;;;1.90;;
41923;SDS011;27613;48.116;11.656;2022-08-30T14:38:32;3.08;;;2.08;;
41923;SDS011;27613;48.116;11.656;2022-08-30T14:40:57;3.00;;;1.95;;
41923;SDS011;27613;48.116;11.656;2022-08-30T14:43:23;3.15;;;2.03;;
41923;SDS011;27613;48.116;11.656;2022-08-30T14:45:49;2.70;;;2.00;;
41923;SDS011;27613;48.116;11.656;2022-08-30T14:48:14;3.22;;;1.88;;
41923;SDS011;27613;48.116;11.656;2022-08-30T14:50:40;3.55;;;2.10;;
41923;SDS011;27613;48.116;11.656;2022-08-30T14:53:06;2.65;;;1.77;;
41923;SDS011;27613;48.116;11.656;2022-08-30T14:55:33;3.03;;;1.95;;
41923;SDS011;27613;48.116;11.656;2022-08-30T14:57:59;2.80;;;1.88;;
41923;SDS011;27613;48.116;11.656;2022-08-30T15:00:25;4.57;;;1.83;;
41923;SDS011;27613;48.116;11.656;2022-08-30T15:02:51;3.17;;;1.90;;
41923;SDS011;27613;48.116;11.656;2022-08-30T15:05:17;2.70;;;1.70;;
41923;SDS011;27613;48.116;11.656;2022-08-30T15:07:43;2.38;;;1.70;;
41923;SDS011;27613;48.116;11.656;2022-08-30T15:10:11;2.50;;;1.80;;
41923;SDS011;27613;48.116;11.656;2022-08-30T15:12:38;2.70;;;2.03;;
41923;SDS011;27613;48.116;11.656;2022-08-30T15:15:05;5.68;;;1.98;;
41923;SDS011;27613;48.116;11.656;2022-08-30T15:17:32;3.65;;;2.20;;
41923;SDS011;27613;48.116;11.656;2022-08-30T15:19:57;2.55;;;1.70;;
41923;SDS011;27613;48.116;11.656;2022-08-30T15:22:23;2.30;;;1.83;;
41923;SDS011;27613;48.116;11.656;2022-08-30T15:24:48;3.60;;;2.13;;
41923;SDS011;27613;48.116;11.656;2022-08-30T15:27:14;2.53;;;1.85;;
41923;SDS011;27613;48.116;11.656;2022-08-30T15:29:40;2.42;;;1.90;;
41923;SDS011;27613;48.116;11.656;2022-08-30T15:32:06;3.00;;;1.92;;
41923;SDS011;27613;48.116;11.656;2022-08-30T15:34:32;2.85;;;1.80;;
41923;SDS011;27613;48.116;11.656;2022-08-30T15:36:58;2.60;;;1.90;;
41923;SDS011;27613;48.116;11.656;2022-08-30T15:39:23;2.90;;;2.03;;
41923;SDS011;27613;48.116;11.656;2022-08-30T15:41:50;2.92;;;2.00;;
41923;SDS011;27613;48.116;11.656;2022-08-30T15:44:17;2.90;;;2.00;;
41923;SDS011;27613;48.116;11.656;2022-08-30T15:46:43;2.92;;;1.77;;
41923;SDS011;27613;48.116;11.656;2022-08-30T15:49:11;3.17;;;1.80;;
41923;SDS011;27613;48.116;11.656;2022-08-30T15:51:39;4.03;;;2.03;;
41923;SDS011;27613;48.116;11.656;2022-08-30T15:54:05;2.95;;;1.88;;
41923;SDS011;27613;48.116;11.656;2022-08-30T15:56:31;2.28;;;1.73;;
41923;SDS011;27613;48.116;11.656;2022-08-30T15:58:57;2.05;;;1.52;;
41923;SDS011;27613;48.116;11.656;2022-08-30T16:01:23;2.20;;;1.58;;
41923;SDS011;27613;48.116;11.656;2022-08-30T16:03:49;4.40;;;1.90;;
41923;SDS011;27613;48.116;11.656;2022-08-30T16:06:23;2.83;;;1.90;;